WST weather

Westerly State Airport
Westerly, Rhode Island, United States

Public forecast

Using degrees Fahrenheit for public forecast. Weather courtesy of forecast.io.

METAR (pilot weather report)

Retrieved 2019/05/22 10:53 UTC (28 minutes ago):

KWST 221053Z AUTO VRB04KT 10SM CLR 13/03 A3013 RMK AO2 SLP202 T01280033

TAF (pilot weather forecast)

Closest forecast is Groton New London Airport, 11.0 nm (20.3 km) W. Retrieved 2019/05/22 06:30 UTC (5 hours ago):

TAF KGON 220529Z 2206/2306 32005KT P6SM FEW250 FM221200 35011KT P6SM SCT250 FM221900 19011KT P6SM SCT200 FM230100 VRB04KT P6SM SCT150